Time;durP1;ratioP1;P1;durP2;ratioP2;P2;SDS_P1;SDS_P2;PMS_P1;PMS_P2;Temp;Humidity;BMP_temperature;BMP_pressure;BME280_temperature;BME280_humidity;BME280_pressure;Samples;Min_cycle;Max_cycle;Signal;HPM_P1;HPM_P2
2023/08/04 03:59:20;;;;;;;6.03;2.80;;;23.30;99.90;;;;;;6209945;28;87335;-67
2023/08/04 04:02:22;;;;;;;5.30;3.00;;;23.20;99.90;;;;;;6226258;28;89741;-67
2023/08/04 04:05:24;;;;;;;5.10;2.92;;;23.30;99.90;;;;;;6227987;28;89136;-67
2023/08/04 04:08:26;;;;;;;4.97;2.83;;;23.20;99.90;;;;;;6225509;28;89154;-67
2023/08/04 04:11:28;;;;;;;5.93;3.13;;;23.30;99.90;;;;;;6220077;28;88298;-67
2023/08/04 04:14:31;;;;;;;4.13;2.75;;;23.30;99.90;;;;;;6217785;28;89075;-67
2023/08/04 04:17:33;;;;;;;6.03;3.15;;;23.30;99.90;;;;;;6231261;27;88770;-67
2023/08/04 04:20:35;;;;;;;4.22;2.78;;;23.30;99.90;;;;;;6228003;28;89944;-67
2023/08/04 04:23:37;;;;;;;6.05;3.05;;;23.30;99.90;;;;;;6219510;28;89003;-67
2023/08/04 04:26:39;;;;;;;4.47;2.58;;;23.30;99.90;;;;;;6231938;28;89626;-67
2023/08/04 04:29:43;;;;;;;3.17;2.20;;;23.20;99.90;;;;;;6234223;28;89055;-67
2023/08/04 04:32:45;;;;;;;3.35;2.50;;;23.20;99.90;;;;;;6232166;28;89107;-67
2023/08/04 04:35:50;;;;;;;4.25;2.58;;;23.20;99.90;;;;;;6232236;28;89016;-67
2023/08/04 04:38:52;;;;;;;3.55;2.50;;;23.20;99.90;;;;;;6231287;28;88900;-67
2023/08/04 04:41:54;;;;;;;4.03;2.50;;;23.20;99.90;;;;;;6232420;28;88431;-67
2023/08/04 04:44:57;;;;;;;3.30;2.30;;;23.20;99.90;;;;;;6229049;28;89004;-67
2023/08/04 04:47:59;;;;;;;4.50;2.72;;;23.20;99.90;;;;;;6232008;28;89070;-67
2023/08/04 04:51:01;;;;;;;5.57;2.83;;;23.30;99.90;;;;;;6242830;27;89967;-67
2023/08/04 04:54:03;;;;;;;6.70;3.20;;;23.20;99.90;;;;;;6230136;28;89324;-67
2023/08/04 04:57:06;;;;;;;6.50;3.13;;;23.30;99.90;;;;;;6231782;28;89152;-68
2023/08/04 05:00:11;;;;;;;3.80;2.50;;;23.20;99.90;;;;;;6231971;27;89078;-67
2023/08/04 05:03:13;;;;;;;5.00;2.70;;;23.30;99.90;;;;;;6221646;28;89078;-66
2023/08/04 05:06:14;;;;;;;4.53;2.58;;;23.30;99.90;;;;;;6218782;28;89162;-66
2023/08/04 05:09:17;;;;;;;3.80;2.67;;;23.30;99.90;;;;;;6217276;28;88229;-67
2023/08/04 05:12:19;;;;;;;3.78;2.60;;;23.30;99.90;;;;;;6226849;28;88627;-67
2023/08/04 05:15:22;;;;;;;7.15;3.13;;;23.30;99.90;;;;;;6220605;28;89065;-67
2023/08/04 05:18:25;;;;;;;5.13;2.90;;;23.30;99.90;;;;;;6225553;28;89051;-67
2023/08/04 05:21:26;;;;;;;4.63;2.80;;;23.30;99.90;;;;;;6219382;28;89910;-67
2023/08/04 05:24:28;;;;;;;4.75;2.58;;;23.30;99.90;;;;;;6217442;28;88968;-67
2023/08/04 05:27:30;;;;;;;3.50;2.60;;;23.30;99.90;;;;;;6220781;28;88145;-67
2023/08/04 05:30:34;;;;;;;4.78;3.22;;;23.30;99.90;;;;;;6216223;28;89685;-67
2023/08/04 05:33:36;;;;;;;5.85;2.75;;;23.30;99.90;;;;;;6233126;28;89159;-68
2023/08/04 05:36:38;;;;;;;3.67;2.35;;;23.30;99.90;;;;;;6227746;28;89124;-68
2023/08/04 05:39:40;;;;;;;4.78;2.58;;;23.30;99.90;;;;;;6226624;28;89097;-68
2023/08/04 05:42:42;;;;;;;5.90;3.00;;;23.30;99.90;;;;;;6231502;28;88353;-68
2023/08/04 05:45:48;;;;;;;8.55;3.35;;;23.30;99.90;;;;;;6228830;28;88941;-68
2023/08/04 05:48:49;;;;;;;4.88;2.25;;;23.30;99.90;;;;;;6222338;28;89060;-69
2023/08/04 05:51:51;;;;;;;3.75;2.20;;;23.30;99.90;;;;;;6229262;28;90342;-68
2023/08/04 05:54:55;;;;;;;3.17;1.85;;;23.30;99.90;;;;;;6231325;27;89342;-68
2023/08/04 05:57:57;;;;;;;3.33;1.70;;;23.30;99.90;;;;;;6233307;28;88895;-68
2023/08/04 06:01:01;;;;;;;4.35;1.70;;;23.30;99.90;;;;;;6230697;27;88269;-69
2023/08/04 06:04:03;;;;;;;3.42;1.90;;;23.30;99.90;;;;;;6228684;28;89016;-68
2023/08/04 06:07:05;;;;;;;4.78;1.80;;;23.30;99.90;;;;;;6229564;28;88995;-68
2023/08/04 06:10:08;;;;;;;4.28;1.88;;;23.30;99.90;;;;;;6226006;28;90005;-68
2023/08/04 06:13:10;;;;;;;3.28;1.70;;;23.30;99.90;;;;;;6233203;28;88337;-68
2023/08/04 06:16:13;;;;;;;4.20;2.00;;;23.30;99.90;;;;;;6229608;28;88971;-68
2023/08/04 06:19:15;;;;;;;2.83;1.50;;;23.20;99.90;;;;;;6228787;28;89513;-68
2023/08/04 06:22:17;;;;;;;4.13;1.63;;;23.20;99.90;;;;;;6235580;27;90295;-69
2023/08/04 06:25:19;;;;;;;4.18;1.95;;;23.30;99.90;;;;;;6235841;27;89031;-68
2023/08/04 06:28:21;;;;;;;3.20;1.80;;;23.20;99.90;;;;;;6222708;28;89034;-68
2023/08/04 06:31:24;;;;;;;4.25;1.98;;;23.30;99.90;;;;;;6220825;28;87953;-67
2023/08/04 06:34:26;;;;;;;5.05;2.13;;;23.30;99.90;;;;;;6234506;28;89151;-67
2023/08/04 06:37:28;;;;;;;5.07;1.95;;;23.30;99.90;;;;;;6227956;28;87945;-68
2023/08/04 06:40:30;;;;;;;4.25;1.98;;;23.30;99.90;;;;;;6218356;28;88063;-67
2023/08/04 06:43:32;;;;;;;5.18;2.33;;;23.30;99.90;;;;;;6234637;27;88320;-67
2023/08/04 06:46:36;;;;;;;2.22;1.50;;;23.30;99.90;;;;;;6226716;28;89296;-68
2023/08/04 06:49:38;;;;;;;3.03;1.42;;;23.20;99.90;;;;;;6228267;28;89016;-68
2023/08/04 06:52:40;;;;;;;3.28;1.83;;;23.20;99.90;;;;;;6228422;28;90488;-67
2023/08/04 06:55:42;;;;;;;3.03;1.50;;;23.20;99.90;;;;;;6229063;27;88930;-68
2023/08/04 06:58:44;;;;;;;2.17;1.42;;;23.20;99.90;;;;;;6228973;28;89493;-67
2023/08/04 07:01:47;;;;;;;2.65;1.52;;;23.20;99.90;;;;;;6223728;28;88988;-67
2023/08/04 07:04:49;;;;;;;4.30;1.90;;;23.20;99.90;;;;;;6229679;28;89069;-67
2023/08/04 07:07:54;;;;;;;3.83;1.75;;;23.20;99.90;;;;;;6222372;28;89024;-67
2023/08/04 07:10:56;;;;;;;3.90;1.60;;;23.20;99.90;;;;;;6229202;28;88998;-67
2023/08/04 07:13:58;;;;;;;4.35;2.13;;;23.20;99.90;;;;;;6223361;28;88339;-67
2023/08/04 07:17:02;;;;;;;2.70;1.67;;;23.20;99.90;;;;;;6224810;27;88940;-67
2023/08/04 07:20:05;;;;;;;3.47;1.50;;;23.20;99.90;;;;;;6232271;28;87988;-68
2023/08/04 07:23:07;;;;;;;2.13;1.48;;;23.20;99.90;;;;;;6242289;28;88919;-68
2023/08/04 07:26:10;;;;;;;2.25;1.40;;;23.20;99.90;;;;;;6223753;28;89144;-67
2023/08/04 07:29:12;;;;;;;1.67;1.38;;;23.30;99.90;;;;;;6233373;28;89088;-68
2023/08/04 07:32:15;;;;;;;3.78;1.58;;;23.20;99.90;;;;;;6242960;27;89071;-67
2023/08/04 07:35:17;;;;;;;2.88;1.70;;;23.20;99.90;;;;;;6233216;28;89054;-68
2023/08/04 07:38:20;;;;;;;4.72;2.08;;;23.20;99.90;;;;;;6233644;28;90741;-67
2023/08/04 07:41:24;;;;;;;3.95;2.05;;;23.20;99.90;;;;;;6236056;28;89020;-68
2023/08/04 07:44:26;;;;;;;2.55;1.60;;;23.20;99.90;;;;;;6242988;28;87545;-68
2023/08/04 07:47:29;;;;;;;3.58;1.85;;;23.20;99.90;;;;;;6223077;28;89007;-68
2023/08/04 07:50:31;;;;;;;2.67;1.60;;;23.20;99.90;;;;;;6235721;28;89363;-68
2023/08/04 07:53:33;;;;;;;2.40;1.60;;;23.20;99.90;;;;;;6237288;28;88957;-67
2023/08/04 07:56:35;;;;;;;1.75;1.40;;;23.20;99.90;;;;;;6231597;28;89038;-68
2023/08/04 07:59:37;;;;;;;2.45;1.40;;;23.20;99.90;;;;;;6237129;28;89192;-68
2023/08/04 08:02:41;;;;;;;2.50;1.50;;;23.20;99.90;;;;;;6227818;28;89167;-68
2023/08/04 08:05:43;;;;;;;3.38;1.80;;;23.30;99.90;;;;;;6220136;28;89152;-68
2023/08/04 08:08:46;;;;;;;2.63;1.63;;;23.20;99.90;;;;;;6230853;28;89074;-68
2023/08/04 08:11:48;;;;;;;2.45;1.60;;;23.20;99.90;;;;;;6226620;28;89425;-68
2023/08/04 08:14:50;;;;;;;2.13;1.50;;;23.30;99.90;;;;;;6236539;27;88317;-67
2023/08/04 08:17:53;;;;;;;2.38;1.63;;;23.20;99.90;;;;;;6238344;27;88926;-68
2023/08/04 08:20:55;;;;;;;5.50;2.50;;;23.20;99.90;;;;;;6223250;28;89590;-68
2023/08/04 08:23:57;;;;;;;3.35;1.65;;;23.20;99.90;;;;;;6230763;27;90290;-67
2023/08/04 08:26:59;;;;;;;2.80;1.70;;;23.30;99.90;;;;;;6233850;28;89426;-68
2023/08/04 08:30:01;;;;;;;2.85;1.73;;;23.30;99.90;;;;;;6236892;28;88950;-67
2023/08/04 08:33:14;;;;;;;5.32;2.22;;;23.30;99.90;;;;;;6231739;28;89163;-67
2023/08/04 08:36:17;;;;;;;22.65;4.53;;;23.20;99.90;;;;;;6224061;28;89409;-68
2023/08/04 08:39:20;;;;;;;13.00;2.88;;;23.30;99.90;;;;;;6227370;28;89120;-67
2023/08/04 08:42:22;;;;;;;6.25;2.92;;;23.20;99.90;;;;;;6226458;28;89086;-67
2023/08/04 08:45:27;;;;;;;6.15;2.47;;;23.20;99.90;;;;;;6232932;28;88390;-67
2023/08/04 08:48:31;;;;;;;8.30;2.72;;;23.30;99.90;;;;;;6229815;28;89007;-67
2023/08/04 08:51:35;;;;;;;5.28;1.92;;;23.30;99.90;;;;;;6235841;28;89114;-67
2023/08/04 08:54:38;;;;;;;4.93;2.15;;;23.30;99.90;;;;;;6220844;28;89196;-67
2023/08/04 08:57:41;;;;;;;5.75;2.38;;;23.30;99.90;;;;;;6229445;28;89132;-67
2023/08/04 09:00:44;;;;;;;3.10;1.70;;;23.30;99.90;;;;;;6237111;27;89061;-67
2023/08/04 09:03:47;;;;;;;4.75;2.15;;;23.30;99.90;;;;;;6239889;28;89053;-67
2023/08/04 09:06:49;;;;;;;2.63;1.60;;;23.30;99.90;;;;;;6235034;27;89046;-67
2023/08/04 09:09:51;;;;;;;3.13;1.80;;;23.30;99.90;;;;;;6232992;28;88185;-67
2023/08/04 09:12:53;;;;;;;4.70;1.88;;;23.30;99.90;;;;;;6230431;28;89014;-67
2023/08/04 09:15:58;;;;;;;7.35;2.72;;;23.30;99.90;;;;;;6230842;28;88073;-66
2023/08/04 09:19:05;;;;;;;7.65;2.88;;;23.30;99.90;;;;;;6225392;28;89095;-67
2023/08/04 09:22:07;;;;;;;5.03;1.73;;;23.30;99.90;;;;;;6231741;28;89094;-67
2023/08/04 09:25:10;;;;;;;3.97;1.60;;;23.30;99.90;;;;;;6230995;28;90104;-67
2023/08/04 09:28:15;;;;;;;4.50;1.60;;;23.30;99.90;;;;;;6230086;28;89077;-67
2023/08/04 09:31:17;;;;;;;3.75;1.70;;;23.30;99.90;;;;;;6231388;28;89036;-67
2023/08/04 09:34:20;;;;;;;2.45;1.63;;;23.30;99.90;;;;;;6231192;28;89057;-67
2023/08/04 09:37:22;;;;;;;2.78;1.67;;;23.30;99.90;;;;;;6228598;28;89091;-67
2023/08/04 09:40:24;;;;;;;5.32;2.15;;;23.30;99.90;;;;;;6230963;28;89147;-67
2023/08/04 09:43:26;;;;;;;5.35;2.20;;;23.30;99.90;;;;;;6231581;28;89168;-67
2023/08/04 09:46:28;;;;;;;4.00;1.83;;;23.30;99.90;;;;;;6220801;28;87324;-67
2023/08/04 09:49:32;;;;;;;4.32;1.80;;;23.30;99.90;;;;;;6230460;28;90401;-67
2023/08/04 09:52:34;;;;;;;3.67;1.70;;;23.30;99.90;;;;;;6229652;28;89025;-67
2023/08/04 09:55:36;;;;;;;2.17;1.50;;;23.30;99.90;;;;;;6244570;27;90211;-67
2023/08/04 09:58:38;;;;;;;2.85;1.48;;;23.30;99.90;;;;;;6224558;27;89029;-67
2023/08/04 10:01:41;;;;;;;4.68;2.03;;;23.30;99.90;;;;;;6223398;28;89152;-67
2023/08/04 10:04:48;;;;;;;4.03;2.05;;;23.30;99.90;;;;;;6228696;28;90533;-67
2023/08/04 10:07:50;;;;;;;3.08;1.70;;;23.30;99.90;;;;;;6227175;28;87969;-67
2023/08/04 10:10:54;;;;;;;3.40;2.03;;;23.30;99.90;;;;;;6229144;28;89367;-66
2023/08/04 10:13:57;;;;;;;3.28;1.95;;;23.30;99.90;;;;;;6223833;27;89515;-67
2023/08/04 10:17:00;;;;;;;4.00;2.03;;;23.30;99.90;;;;;;6220953;28;88682;-67
2023/08/04 10:20:05;;;;;;;2.58;1.58;;;23.30;99.90;;;;;;6222551;28;89005;-69
2023/08/04 10:23:07;;;;;;;2.45;1.90;;;23.30;99.90;;;;;;6227812;28;89031;-67
2023/08/04 10:26:13;;;;;;;3.13;2.13;;;23.30;99.90;;;;;;6225476;28;90187;-68
2023/08/04 10:29:15;;;;;;;2.85;1.60;;;23.40;99.90;;;;;;6218498;28;88976;-67
2023/08/04 10:32:18;;;;;;;3.28;1.52;;;23.40;99.90;;;;;;6218109;28;87974;-67
2023/08/04 10:35:22;;;;;;;4.00;1.42;;;23.40;99.90;;;;;;6226523;28;89123;-69
2023/08/04 10:38:24;;;;;;;2.90;1.75;;;23.40;99.90;;;;;;6229740;28;89075;-66
2023/08/04 10:41:26;;;;;;;5.43;2.42;;;23.50;99.90;;;;;;6219256;28;88998;-67
2023/08/04 10:44:30;;;;;;;4.97;1.90;;;23.50;99.90;;;;;;6224347;28;89269;-67
2023/08/04 10:47:34;;;;;;;3.38;1.75;;;23.50;99.90;;;;;;6221417;28;88221;-67
2023/08/04 10:50:38;;;;;;;2.55;1.63;;;23.50;99.90;;;;;;6227430;28;89032;-67
2023/08/04 10:53:40;;;;;;;4.07;1.60;;;23.50;99.90;;;;;;6230133;28;89456;-67
2023/08/04 10:56:46;;;;;;;6.22;1.98;;;23.50;99.90;;;;;;6230414;28;88875;-67
2023/08/04 10:59:48;;;;;;;7.07;2.60;;;23.50;99.90;;;;;;6226962;28;89036;-67
2023/08/04 11:02:50;;;;;;;10.65;3.05;;;23.40;99.90;;;;;;6229742;28;89087;-67
2023/08/04 11:05:54;;;;;;;7.88;2.85;;;23.50;99.90;;;;;;6235194;28;88941;-67
2023/08/04 11:08:57;;;;;;;6.78;2.70;;;23.40;99.90;;;;;;6227668;28;89160;-68
2023/08/04 11:12:03;;;;;;;5.95;2.10;;;23.40;99.90;;;;;;6236151;28;89024;-71
2023/08/04 11:15:09;;;;;;;7.45;2.30;;;23.40;99.90;;;;;;6229555;27;89127;-66
2023/08/04 11:18:12;;;;;;;5.38;2.13;;;23.40;99.90;;;;;;6230539;28;88370;-67
2023/08/04 11:21:17;;;;;;;7.72;2.65;;;23.40;99.90;;;;;;6232264;28;89041;-66
2023/08/04 11:24:37;;;;;;;5.82;2.25;;;23.40;99.90;;;;;;6235913;28;89319;-66
2023/08/04 11:27:39;;;;;;;6.22;2.15;;;23.40;99.90;;;;;;6235305;28;89938;-67
2023/08/04 11:30:41;;;;;;;7.60;2.30;;;23.40;99.90;;;;;;6233747;28;88998;-67
2023/08/04 11:33:44;;;;;;;5.97;2.30;;;23.40;99.90;;;;;;6236413;28;89357;-67
2023/08/04 11:36:48;;;;;;;4.95;2.20;;;23.40;99.90;;;;;;6227327;28;89049;-67
2023/08/04 11:39:50;;;;;;;4.43;1.98;;;23.40;99.90;;;;;;6236638;28;89028;-67
2023/08/04 11:42:53;;;;;;;9.32;3.13;;;23.40;99.90;;;;;;6230680;28;89351;-67
2023/08/04 11:45:57;;;;;;;4.05;2.35;;;23.40;99.90;;;;;;6232489;28;89079;-67
2023/08/04 11:49:02;;;;;;;11.85;3.47;;;23.40;99.90;;;;;;6231204;28;88585;-67
2023/08/04 11:52:10;;;;;;;9.10;2.50;;;23.40;99.90;;;;;;6225782;28;89207;-67
2023/08/04 11:55:12;;;;;;;7.53;2.80;;;23.40;99.90;;;;;;6234208;28;89076;-67
2023/08/04 11:58:14;;;;;;;7.13;2.65;;;23.40;99.90;;;;;;6241926;27;90097;-66
2023/08/04 12:01:30;;;;;;;8.75;3.25;;;23.40;99.90;;;;;;6232811;28;89059;-66
2023/08/04 12:04:32;;;;;;;8.80;3.10;;;23.40;99.90;;;;;;6226139;28;89171;-68
2023/08/04 12:07:35;;;;;;;6.18;2.60;;;23.40;99.90;;;;;;6221698;28;89069;-67
2023/08/04 12:10:38;;;;;;;6.65;2.33;;;23.40;99.90;;;;;;6235244;28;87983;-67
2023/08/04 12:13:40;;;;;;;5.18;2.28;;;23.40;99.90;;;;;;6242440;28;88832;-67
2023/08/04 12:16:50;;;;;;;5.72;2.08;;;23.40;99.90;;;;;;6221693;28;89054;-67
2023/08/04 12:19:52;;;;;;;5.82;2.40;;;23.40;99.90;;;;;;6229418;28;88310;-67
2023/08/04 12:22:55;;;;;;;4.13;1.98;;;23.40;99.90;;;;;;6232278;28;89025;-67
2023/08/04 12:25:57;;;;;;;3.70;1.90;;;23.40;99.90;;;;;;6239278;28;88985;-67
2023/08/04 12:28:59;;;;;;;6.45;2.60;;;23.40;99.90;;;;;;6225372;28;90221;-67
2023/08/04 12:32:01;;;;;;;7.80;2.60;;;23.40;99.90;;;;;;6231140;28;89011;-67
2023/08/04 12:35:04;;;;;;;9.20;2.85;;;23.40;99.90;;;;;;6229890;28;88030;-68
2023/08/04 12:38:07;;;;;;;4.50;2.10;;;23.40;99.90;;;;;;6234209;28;89056;-67
2023/08/04 12:41:10;;;;;;;4.88;1.92;;;23.40;99.90;;;;;;6230946;28;89122;-68
2023/08/04 12:44:12;;;;;;;4.47;1.80;;;23.30;99.90;;;;;;6234940;28;89083;-67
2023/08/04 12:47:14;;;;;;;4.90;1.83;;;23.40;99.90;;;;;;6239002;27;89031;-67
2023/08/04 12:50:16;;;;;;;6.15;2.28;;;23.40;99.90;;;;;;6226202;28;88144;-67
2023/08/04 12:53:19;;;;;;;4.95;1.80;;;23.30;99.90;;;;;;6224008;28;88978;-67
2023/08/04 12:56:21;;;;;;;4.55;1.83;;;23.40;99.90;;;;;;6226257;28;89194;-68
2023/08/04 12:59:23;;;;;;;3.78;1.50;;;23.40;99.90;;;;;;6233505;28;90045;-67
2023/08/04 13:02:25;;;;;;;3.97;1.58;;;23.40;99.90;;;;;;6234618;28;89098;-67
2023/08/04 13:05:27;;;;;;;9.68;3.22;;;23.40;99.90;;;;;;6231444;28;88113;-67
2023/08/04 13:08:31;;;;;;;3.90;1.70;;;23.40;99.90;;;;;;6242588;27;87904;-67
2023/08/04 13:11:33;;;;;;;5.05;1.70;;;23.40;99.90;;;;;;6245780;27;89017;-67
2023/08/04 13:14:35;;;;;;;2.63;1.33;;;23.40;99.90;;;;;;6238211;27;87997;-67
2023/08/04 13:17:37;;;;;;;4.75;2.05;;;23.50;99.90;;;;;;6230735;28;89066;-67
2023/08/04 13:20:39;;;;;;;6.35;2.53;;;23.40;99.90;;;;;;6231495;28;87266;-67
2023/08/04 13:23:42;;;;;;;2.13;1.30;;;23.30;99.90;;;;;;6231954;28;88102;-67
2023/08/04 13:26:44;;;;;;;2.00;1.30;;;23.40;99.90;;;;;;6218165;28;90716;-67
2023/08/04 13:29:48;;;;;;;4.38;1.63;;;23.40;99.90;;;;;;6229865;28;90035;-67
2023/08/04 13:32:50;;;;;;;2.75;1.52;;;23.40;99.90;;;;;;6212943;28;88966;-67
2023/08/04 13:35:52;;;;;;;6.88;2.40;;;23.30;99.90;;;;;;6242556;28;89542;-67
2023/08/04 13:38:55;;;;;;;4.72;1.90;;;23.40;99.90;;;;;;6225536;28;89101;-67
2023/08/04 13:41:57;;;;;;;2.80;1.40;;;23.40;99.90;;;;;;6237050;28;89351;-67
2023/08/04 13:44:59;;;;;;;3.05;1.63;;;23.40;99.90;;;;;;6231536;28;89015;-67
2023/08/04 13:48:01;;;;;;;2.53;1.58;;;23.30;99.90;;;;;;6231455;28;89064;-67
2023/08/04 13:51:03;;;;;;;2.53;1.50;;;23.40;99.90;;;;;;6222988;28;88641;-67
2023/08/04 13:54:07;;;;;;;3.33;1.42;;;23.30;99.90;;;;;;6229687;28;89016;-67
2023/08/04 13:57:09;;;;;;;3.00;1.55;;;23.40;99.90;;;;;;6229661;28;89057;-67
2023/08/04 14:00:12;;;;;;;2.70;1.50;;;23.40;99.90;;;;;;6228731;28;90382;-67
2023/08/04 14:03:14;;;;;;;3.63;1.80;;;23.30;99.90;;;;;;6234215;27;87959;-67
2023/08/04 14:06:18;;;;;;;4.20;1.95;;;23.40;99.90;;;;;;6235949;28;88874;-67
2023/08/04 14:09:21;;;;;;;2.83;1.35;;;23.30;99.90;;;;;;6230466;28;91123;-67
2023/08/04 14:12:24;;;;;;;2.95;1.65;;;23.40;99.90;;;;;;6231684;28;89091;-67
2023/08/04 14:15:26;;;;;;;2.65;1.67;;;23.30;99.90;;;;;;6234127;28;89350;-67
2023/08/04 14:18:28;;;;;;;2.58;1.60;;;23.40;99.90;;;;;;6240254;27;89030;-67
2023/08/04 14:21:30;;;;;;;3.80;1.98;;;23.40;99.90;;;;;;6228496;28;87462;-67
2023/08/04 14:24:33;;;;;;;2.67;1.60;;;23.40;99.90;;;;;;6241602;27;89120;-67
2023/08/04 14:27:35;;;;;;;2.70;1.60;;;23.40;99.90;;;;;;6227760;27;89124;-67
2023/08/04 14:30:40;;;;;;;4.00;1.92;;;23.40;99.90;;;;;;6233535;27;89986;-67
2023/08/04 14:33:41;;;;;;;3.10;1.70;;;23.30;99.90;;;;;;6238174;27;89339;-67
2023/08/04 14:36:44;;;;;;;4.38;1.95;;;23.30;99.90;;;;;;6232285;28;89012;-68
2023/08/04 14:39:47;;;;;;;2.65;1.50;;;23.30;99.90;;;;;;6230504;28;89037;-67
2023/08/04 14:42:49;;;;;;;4.30;1.85;;;23.30;99.90;;;;;;6223602;28;89062;-67
2023/08/04 14:45:51;;;;;;;2.85;1.55;;;23.40;99.90;;;;;;6229722;28;89130;-67
2023/08/04 14:48:53;;;;;;;3.17;1.67;;;23.40;99.90;;;;;;6228956;28;89129;-67
2023/08/04 14:51:55;;;;;;;2.80;1.60;;;23.40;99.90;;;;;;6230310;28;88315;-67
2023/08/04 14:54:58;;;;;;;3.08;1.80;;;23.40;99.90;;;;;;6233332;28;89102;-67
2023/08/04 14:58:00;;;;;;;3.72;2.00;;;23.40;99.90;;;;;;6233823;28;89295;-67
2023/08/04 15:01:06;;;;;;;3.88;2.00;;;23.30;99.90;;;;;;6226293;28;90535;-67
2023/08/04 15:04:08;;;;;;;5.13;2.25;;;23.40;99.90;;;;;;6223825;28;88997;-68
2023/08/04 15:07:10;;;;;;;8.68;2.63;;;23.40;99.90;;;;;;6229637;27;89098;-67
2023/08/04 15:10:14;;;;;;;4.82;1.85;;;23.30;99.90;;;;;;6234394;27;90614;-67
2023/08/04 15:13:16;;;;;;;5.82;2.08;;;23.40;99.90;;;;;;6239374;27;89150;-67
2023/08/04 15:16:18;;;;;;;4.28;2.00;;;23.40;99.90;;;;;;6230931;27;89387;-67
2023/08/04 15:19:20;;;;;;;5.28;1.92;;;23.40;99.90;;;;;;6225516;28;89051;-67
2023/08/04 15:22:22;;;;;;;4.20;2.25;;;23.40;99.90;;;;;;6232506;27;88181;-68
2023/08/04 15:25:25;;;;;;;3.33;1.92;;;23.40;99.90;;;;;;6235042;28;89024;-67
2023/08/04 15:28:27;;;;;;;5.90;2.38;;;23.40;99.90;;;;;;6236346;28;89123;-67
2023/08/04 15:31:29;;;;;;;4.22;2.20;;;23.40;99.90;;;;;;6215545;27;89959;-67
2023/08/04 15:34:32;;;;;;;4.15;2.13;;;23.40;99.90;;;;;;6227291;28;89924;-67
2023/08/04 15:37:34;;;;;;;4.70;2.05;;;23.30;99.90;;;;;;6232213;28;88953;-67
2023/08/04 15:40:39;;;;;;;3.55;1.83;;;23.40;99.90;;;;;;6227706;28;89045;-67
2023/08/04 15:43:42;;;;;;;4.85;2.15;;;23.30;99.90;;;;;;6232379;28;89154;-67
2023/08/04 15:46:44;;;;;;;4.45;2.20;;;23.30;99.90;;;;;;6232398;28;89378;-67
2023/08/04 15:49:46;;;;;;;2.58;1.98;;;23.30;99.90;;;;;;6240009;28;89148;-67
2023/08/04 15:52:48;;;;;;;3.20;2.22;;;23.30;99.90;;;;;;6236627;28;89456;-67
2023/08/04 15:55:52;;;;;;;6.05;2.60;;;23.30;99.90;;;;;;6235547;27;88955;-67
2023/08/04 15:58:54;;;;;;;3.30;2.00;;;23.40;99.90;;;;;;6232585;28;89622;-67
2023/08/04 16:01:56;;;;;;;4.28;2.05;;;23.30;99.90;;;;;;6238698;28;89874;-67
2023/08/04 16:04:59;;;;;;;4.72;2.30;;;23.40;99.90;;;;;;6232023;28;87989;-66
2023/08/04 16:08:01;;;;;;;6.32;2.55;;;23.30;99.90;;;;;;6229398;28;89039;-67
2023/08/04 16:11:08;;;;;;;5.15;2.35;;;23.40;99.90;;;;;;6231196;28;89005;-66
2023/08/04 16:14:10;;;;;;;3.15;2.10;;;23.40;99.90;;;;;;6230499;28;89051;-66
2023/08/04 16:17:12;;;;;;;5.32;2.35;;;23.40;99.90;;;;;;6227320;28;87574;-67
2023/08/04 16:20:14;;;;;;;5.57;2.25;;;23.40;99.90;;;;;;6225884;28;89015;-66
2023/08/04 16:23:16;;;;;;;4.18;2.17;;;23.40;99.90;;;;;;6230563;28;90136;-67
2023/08/04 16:26:20;;;;;;;4.60;2.00;;;23.40;99.90;;;;;;6236580;28;89222;-66
2023/08/04 16:29:22;;;;;;;5.72;3.33;;;23.40;99.90;;;;;;6241075;27;87866;-67
2023/08/04 16:32:24;;;;;;;6.85;4.18;;;23.40;99.90;;;;;;6225299;28;90054;-66
2023/08/04 16:35:26;;;;;;;4.95;3.30;;;23.40;99.90;;;;;;6227865;28;89450;-66
2023/08/04 16:38:28;;;;;;;6.95;3.88;;;23.40;99.90;;;;;;6220321;28;88811;-66
2023/08/04 16:41:32;;;;;;;4.03;2.75;;;23.50;99.90;;;;;;6231567;28;88877;-66
2023/08/04 16:44:34;;;;;;;4.25;2.70;;;23.50;99.90;;;;;;6228013;28;88991;-66
2023/08/04 16:47:36;;;;;;;4.13;2.53;;;23.50;99.90;;;;;;6228498;28;89726;-66
2023/08/04 16:50:38;;;;;;;3.90;2.42;;;23.50;99.90;;;;;;6228582;28;89090;-67
2023/08/04 16:53:40;;;;;;;4.78;2.80;;;23.50;99.90;;;;;;6226103;28;88760;-66
2023/08/04 16:56:43;;;;;;;3.00;2.22;;;23.50;99.90;;;;;;6234031;27;89191;-66
2023/08/04 16:59:48;;;;;;;4.72;2.50;;;23.50;99.90;;;;;;6229862;28;88921;-66
2023/08/04 17:02:50;;;;;;;6.30;2.95;;;23.50;99.90;;;;;;6240949;28;90005;-66
2023/08/04 17:05:52;;;;;;;7.15;2.90;;;23.50;99.90;;;;;;6241630;28;89049;-66
2023/08/04 17:08:54;;;;;;;4.85;2.75;;;23.50;99.90;;;;;;6226142;28;88960;-66
2023/08/04 17:11:58;;;;;;;4.90;2.38;;;23.60;99.90;;;;;;6229418;28;89195;-67
2023/08/04 17:15:00;;;;;;;3.63;2.47;;;23.50;99.90;;;;;;6232859;28;90166;-67
2023/08/04 17:18:02;;;;;;;3.90;2.42;;;23.50;99.90;;;;;;6237279;27;89061;-67
2023/08/04 17:21:04;;;;;;;5.53;2.38;;;23.50;99.90;;;;;;6235595;27;88959;-66
2023/08/04 17:24:06;;;;;;;4.57;2.58;;;23.50;99.90;;;;;;6222898;28;88260;-66
2023/08/04 17:27:09;;;;;;;3.85;2.30;;;23.50;99.90;;;;;;6226314;28;89150;-66
2023/08/04 17:30:12;;;;;;;6.72;3.05;;;23.50;99.90;;;;;;6225241;28;89323;-66
2023/08/04 17:33:14;;;;;;;2.72;2.00;;;23.50;99.90;;;;;;6229154;28;90206;-67
2023/08/04 17:36:16;;;;;;;4.13;2.50;;;23.50;99.90;;;;;;6228276;28;89247;-65
2023/08/04 17:39:18;;;;;;;3.97;2.40;;;23.50;99.90;;;;;;6228252;28;89529;-65
2023/08/04 17:42:21;;;;;;;3.75;2.20;;;23.50;99.90;;;;;;6233388;28;89176;-64
2023/08/04 17:45:23;;;;;;;3.97;2.25;;;23.50;99.90;;;;;;6228576;28;88189;-65
2023/08/04 17:48:25;;;;;;;3.85;2.55;;;23.50;99.90;;;;;;6228085;28;89290;-65
2023/08/04 17:51:27;;;;;;;4.28;2.75;;;23.50;99.90;;;;;;6227839;28;89176;-65
2023/08/04 17:54:29;;;;;;;5.13;2.90;;;23.50;99.90;;;;;;6228610;28;88469;-65
2023/08/04 17:57:33;;;;;;;4.50;2.45;;;23.50;99.90;;;;;;6223034;28;89047;-65
2023/08/04 18:00:35;;;;;;;3.78;2.33;;;23.50;99.90;;;;;;6228397;27;88850;-66
2023/08/04 18:03:37;;;;;;;5.82;2.45;;;23.50;99.90;;;;;;6227589;28;90264;-65
2023/08/04 18:06:39;;;;;;;3.42;2.17;;;23.60;99.90;;;;;;6235525;28;87829;-65
2023/08/04 18:09:41;;;;;;;3.78;2.25;;;23.50;99.90;;;;;;6241651;27;89047;-65
2023/08/04 18:12:45;;;;;;;3.58;2.10;;;23.50;99.90;;;;;;6234571;28;88955;-65
2023/08/04 18:15:48;;;;;;;4.40;2.47;;;23.50;99.90;;;;;;6234576;28;89051;-65
2023/08/04 18:18:50;;;;;;;7.63;3.20;;;23.50;99.90;;;;;;6226601;28;89345;-65
2023/08/04 18:21:53;;;;;;;3.35;2.38;;;23.50;99.90;;;;;;6226292;28;89033;-66
2023/08/04 18:24:55;;;;;;;3.15;2.20;;;23.50;99.90;;;;;;6227318;28;89077;-66
2023/08/04 18:27:59;;;;;;;4.40;2.20;;;23.50;99.90;;;;;;6246316;28;88075;-66
2023/08/04 18:31:03;;;;;;;3.15;2.00;;;23.60;99.90;;;;;;6225564;27;88907;-65
2023/08/04 18:34:06;;;;;;;3.58;2.33;;;23.50;99.90;;;;;;6236870;28;89009;-66
2023/08/04 18:37:09;;;;;;;6.22;3.03;;;23.60;99.90;;;;;;6225247;27;89018;-66
2023/08/04 18:40:14;;;;;;;5.03;2.38;;;23.60;99.90;;;;;;6227432;28;88201;-65
2023/08/04 18:43:19;;;;;;;3.65;2.38;;;23.60;99.90;;;;;;6228327;28;88060;-66
2023/08/04 18:46:22;;;;;;;2.97;2.20;;;23.60;99.90;;;;;;6227832;28;87849;-66
2023/08/04 18:49:26;;;;;;;3.08;2.05;;;23.60;99.90;;;;;;6227973;28;87880;-66
2023/08/04 18:52:29;;;;;;;3.85;2.20;;;23.50;99.90;;;;;;6228658;28;90423;-65
2023/08/04 18:55:36;;;;;;;3.92;2.10;;;23.60;99.90;;;;;;6227402;28;87366;-65
2023/08/04 18:58:41;;;;;;;3.75;2.15;;;23.60;99.90;;;;;;6228412;28;88029;-65
2023/08/04 19:01:45;;;;;;;2.40;2.00;;;23.50;99.90;;;;;;6225066;28;88637;-64
2023/08/04 19:04:48;;;;;;;3.03;1.90;;;23.60;99.90;;;;;;6226086;28;87907;-65
2023/08/04 19:07:52;;;;;;;3.08;2.10;;;23.50;99.90;;;;;;6226418;28;88465;-65
2023/08/04 19:10:56;;;;;;;5.70;2.40;;;23.50;99.90;;;;;;6226164;28;88015;-65
2023/08/04 19:14:01;;;;;;;3.17;2.17;;;23.60;99.90;;;;;;6223816;28;87082;-64
2023/08/04 19:17:05;;;;;;;3.65;2.25;;;23.60;99.90;;;;;;6228535;28;88607;-65
2023/08/04 19:20:10;;;;;;;5.13;2.42;;;23.60;99.90;;;;;;6228493;28;87894;-66
2023/08/04 19:23:14;;;;;;;4.95;2.00;;;23.50;99.90;;;;;;6238047;28;88120;-65
2023/08/04 19:26:18;;;;;;;3.53;2.08;;;23.60;99.90;;;;;;6225639;27;88468;-65
2023/08/04 19:29:24;;;;;;;3.13;2.17;;;23.60;99.90;;;;;;6235114;27;89373;-65
2023/08/04 19:32:27;;;;;;;3.20;2.17;;;23.60;99.90;;;;;;6231228;28;87919;-64
2023/08/04 19:35:34;;;;;;;4.75;2.20;;;23.60;99.90;;;;;;6225525;28;88965;-65
2023/08/04 19:38:38;;;;;;;3.00;1.98;;;23.60;99.90;;;;;;6230616;28;89002;-65
2023/08/04 19:41:42;;;;;;;3.20;1.95;;;23.60;99.90;;;;;;6221974;28;87013;-66
2023/08/04 19:44:48;;;;;;;3.35;1.92;;;23.60;99.90;;;;;;6223935;28;88355;-65
2023/08/04 19:47:51;;;;;;;3.70;2.13;;;23.60;99.90;;;;;;6228363;28;88313;-66